sensor_id;sensor_type;location;lat;lon;timestamp;temperature;humidity
77305;DHT22;66364;52.622;7.746;2023-07-08T00:00:38;17.30;99.90
77305;DHT22;66364;52.622;7.746;2023-07-08T00:02:40;17.20;99.90
77305;DHT22;66364;52.622;7.746;2023-07-08T00:04:43;17.30;99.90
77305;DHT22;66364;52.622;7.746;2023-07-08T00:06:46;17.30;99.90
77305;DHT22;66364;52.622;7.746;2023-07-08T00:08:47;17.50;99.90
77305;DHT22;66364;52.622;7.746;2023-07-08T00:10:48;17.30;99.90
77305;DHT22;66364;52.622;7.746;2023-07-08T00:12:51;17.00;99.90
77305;DHT22;66364;52.622;7.746;2023-07-08T00:14:52;17.10;99.90
77305;DHT22;66364;52.622;7.746;2023-07-08T00:16:53;16.80;99.90
77305;DHT22;66364;52.622;7.746;2023-07-08T00:18:54;17.10;99.90
77305;DHT22;66364;52.622;7.746;2023-07-08T00:20:55;16.90;99.90
77305;DHT22;66364;52.622;7.746;2023-07-08T00:22:57;17.00;99.90
77305;DHT22;66364;52.622;7.746;2023-07-08T00:24:58;17.10;99.90
77305;DHT22;66364;52.622;7.746;2023-07-08T00:27:01;17.10;99.90
77305;DHT22;66364;52.622;7.746;2023-07-08T00:29:08;16.80;99.90
77305;DHT22;66364;52.622;7.746;2023-07-08T00:31:11;16.90;99.90
77305;DHT22;66364;52.622;7.746;2023-07-08T00:33:14;16.80;99.90
77305;DHT22;66364;52.622;7.746;2023-07-08T00:35:16;16.80;99.90
77305;DHT22;66364;52.622;7.746;2023-07-08T00:37:19;16.80;99.90
77305;DHT22;66364;52.622;7.746;2023-07-08T00:39:20;16.70;99.90
77305;DHT22;66364;52.622;7.746;2023-07-08T00:41:30;16.70;99.90
77305;DHT22;66364;52.622;7.746;2023-07-08T00:43:56;16.90;99.90
77305;DHT22;66364;52.622;7.746;2023-07-08T00:46:03;16.80;99.90
77305;DHT22;66364;52.622;7.746;2023-07-08T00:48:12;16.50;99.90
77305;DHT22;66364;52.622;7.746;2023-07-08T00:50:09;16.70;99.90
77305;DHT22;66364;52.622;7.746;2023-07-08T00:52:28;16.50;99.90
77305;DHT22;66364;52.622;7.746;2023-07-08T00:54:23;16.40;99.90
77305;DHT22;66364;52.622;7.746;2023-07-08T00:56:36;16.30;99.90
77305;DHT22;66364;52.622;7.746;2023-07-08T00:58:32;16.40;99.90
77305;DHT22;66364;52.622;7.746;2023-07-08T01:00:34;16.50;99.90
77305;DHT22;66364;52.622;7.746;2023-07-08T01:02:42;16.40;99.90
77305;DHT22;66364;52.622;7.746;2023-07-08T01:06:53;16.20;99.90
77305;DHT22;66364;52.622;7.746;2023-07-08T01:08:55;16.20;99.90
77305;DHT22;66364;52.622;7.746;2023-07-08T01:11:02;16.20;99.90
77305;DHT22;66364;52.622;7.746;2023-07-08T01:13:07;16.40;99.90
77305;DHT22;66364;52.622;7.746;2023-07-08T01:15:10;16.10;99.90
77305;DHT22;66364;52.622;7.746;2023-07-08T01:17:11;16.00;99.90
77305;DHT22;66364;52.622;7.746;2023-07-08T01:19:15;16.00;99.90
77305;DHT22;66364;52.622;7.746;2023-07-08T01:23:35;16.10;99.90
77305;DHT22;66364;52.622;7.746;2023-07-08T01:25:37;15.90;99.90
77305;DHT22;66364;52.622;7.746;2023-07-08T01:27:44;15.90;99.90
77305;DHT22;66364;52.622;7.746;2023-07-08T01:29:46;15.90;99.90
77305;DHT22;66364;52.622;7.746;2023-07-08T01:31:47;15.70;99.90
77305;DHT22;66364;52.622;7.746;2023-07-08T01:33:49;16.00;99.90
77305;DHT22;66364;52.622;7.746;2023-07-08T01:35:51;15.80;99.90
77305;DHT22;66364;52.622;7.746;2023-07-08T01:37:56;15.80;99.90
77305;DHT22;66364;52.622;7.746;2023-07-08T01:39:57;15.80;99.90
77305;DHT22;66364;52.622;7.746;2023-07-08T01:41:58;15.80;99.90
77305;DHT22;66364;52.622;7.746;2023-07-08T01:43:59;15.70;99.90
77305;DHT22;66364;52.622;7.746;2023-07-08T01:46:01;15.70;99.90
77305;DHT22;66364;52.622;7.746;2023-07-08T01:48:10;15.70;99.90
77305;DHT22;66364;52.622;7.746;2023-07-08T01:50:09;15.80;99.90
77305;DHT22;66364;52.622;7.746;2023-07-08T01:52:12;15.70;99.90
77305;DHT22;66364;52.622;7.746;2023-07-08T01:54:15;15.70;99.90
77305;DHT22;66364;52.622;7.746;2023-07-08T01:56:16;15.60;99.90
77305;DHT22;66364;52.622;7.746;2023-07-08T01:58:17;15.60;99.90
77305;DHT22;66364;52.622;7.746;2023-07-08T02:00:18;15.60;99.90
77305;DHT22;66364;52.622;7.746;2023-07-08T02:02:19;15.50;99.90
77305;DHT22;66364;52.622;7.746;2023-07-08T02:04:21;15.50;99.90
77305;DHT22;66364;52.622;7.746;2023-07-08T02:06:22;15.80;99.90
77305;DHT22;66364;52.622;7.746;2023-07-08T02:08:23;15.50;99.90
77305;DHT22;66364;52.622;7.746;2023-07-08T02:10:24;15.50;99.90
77305;DHT22;66364;52.622;7.746;2023-07-08T02:12:25;15.20;99.90
77305;DHT22;66364;52.622;7.746;2023-07-08T02:14:26;15.30;99.90
77305;DHT22;66364;52.622;7.746;2023-07-08T02:16:27;15.60;99.90
77305;DHT22;66364;52.622;7.746;2023-07-08T02:18:28;15.40;99.90
77305;DHT22;66364;52.622;7.746;2023-07-08T02:20:29;15.70;99.90
77305;DHT22;66364;52.622;7.746;2023-07-08T02:22:30;15.30;99.90
77305;DHT22;66364;52.622;7.746;2023-07-08T02:24:31;15.40;99.90
77305;DHT22;66364;52.622;7.746;2023-07-08T02:26:33;15.20;99.90
77305;DHT22;66364;52.622;7.746;2023-07-08T02:28:34;15.20;99.90
77305;DHT22;66364;52.622;7.746;2023-07-08T02:30:35;15.20;99.90
77305;DHT22;66364;52.622;7.746;2023-07-08T02:32:36;15.20;99.90
77305;DHT22;66364;52.622;7.746;2023-07-08T02:34:38;15.10;99.90
77305;DHT22;66364;52.622;7.746;2023-07-08T02:36:39;15.40;99.90
77305;DHT22;66364;52.622;7.746;2023-07-08T02:38:40;15.20;99.90
77305;DHT22;66364;52.622;7.746;2023-07-08T02:40:42;15.20;99.90
77305;DHT22;66364;52.622;7.746;2023-07-08T02:42:44;15.30;99.90
77305;DHT22;66364;52.622;7.746;2023-07-08T02:44:46;15.20;99.90
77305;DHT22;66364;52.622;7.746;2023-07-08T02:46:47;15.10;99.90
77305;DHT22;66364;52.622;7.746;2023-07-08T02:48:48;15.10;99.90
77305;DHT22;66364;52.622;7.746;2023-07-08T02:50:50;15.20;99.90
77305;DHT22;66364;52.622;7.746;2023-07-08T02:52:51;15.10;99.90
77305;DHT22;66364;52.622;7.746;2023-07-08T02:54:52;15.20;99.90
77305;DHT22;66364;52.622;7.746;2023-07-08T02:56:53;15.10;99.90
77305;DHT22;66364;52.622;7.746;2023-07-08T02:58:55;15.20;99.90
77305;DHT22;66364;52.622;7.746;2023-07-08T03:00:57;15.20;99.90
77305;DHT22;66364;52.622;7.746;2023-07-08T03:02:58;15.00;99.90
77305;DHT22;66364;52.622;7.746;2023-07-08T03:04:59;15.10;99.90
77305;DHT22;66364;52.622;7.746;2023-07-08T03:07:00;15.10;99.90
77305;DHT22;66364;52.622;7.746;2023-07-08T03:09:01;15.30;99.90
77305;DHT22;66364;52.622;7.746;2023-07-08T03:11:04;15.00;99.90
77305;DHT22;66364;52.622;7.746;2023-07-08T03:13:05;15.10;99.90
77305;DHT22;66364;52.622;7.746;2023-07-08T03:15:06;15.00;99.90
77305;DHT22;66364;52.622;7.746;2023-07-08T03:17:07;14.90;99.90
77305;DHT22;66364;52.622;7.746;2023-07-08T03:19:11;14.90;99.90
77305;DHT22;66364;52.622;7.746;2023-07-08T03:21:16;14.90;99.90
77305;DHT22;66364;52.622;7.746;2023-07-08T03:23:17;14.80;99.90
77305;DHT22;66364;52.622;7.746;2023-07-08T03:25:18;15.40;99.90
77305;DHT22;66364;52.622;7.746;2023-07-08T03:27:19;14.90;99.90
77305;DHT22;66364;52.622;7.746;2023-07-08T03:29:20;14.80;99.90
77305;DHT22;66364;52.622;7.746;2023-07-08T03:31:21;15.00;99.90
77305;DHT22;66364;52.622;7.746;2023-07-08T03:33:22;14.90;99.90
77305;DHT22;66364;52.622;7.746;2023-07-08T03:35:23;15.00;99.90
77305;DHT22;66364;52.622;7.746;2023-07-08T03:37:24;15.20;99.90
77305;DHT22;66364;52.622;7.746;2023-07-08T03:39:25;15.00;99.90
77305;DHT22;66364;52.622;7.746;2023-07-08T03:41:26;15.10;99.90
77305;DHT22;66364;52.622;7.746;2023-07-08T03:43:27;14.90;99.90
77305;DHT22;66364;52.622;7.746;2023-07-08T03:45:27;15.00;99.90
77305;DHT22;66364;52.622;7.746;2023-07-08T03:47:29;15.00;99.90
77305;DHT22;66364;52.622;7.746;2023-07-08T03:49:30;15.00;99.90
77305;DHT22;66364;52.622;7.746;2023-07-08T03:51:33;15.00;99.90
77305;DHT22;66364;52.622;7.746;2023-07-08T03:53:35;15.10;99.90
77305;DHT22;66364;52.622;7.746;2023-07-08T03:55:36;15.20;99.90
77305;DHT22;66364;52.622;7.746;2023-07-08T03:57:37;15.30;99.90
77305;DHT22;66364;52.622;7.746;2023-07-08T03:59:37;15.00;99.90
77305;DHT22;66364;52.622;7.746;2023-07-08T04:01:38;15.30;99.90
77305;DHT22;66364;52.622;7.746;2023-07-08T04:03:39;15.20;99.90
77305;DHT22;66364;52.622;7.746;2023-07-08T04:05:40;15.30;99.90
77305;DHT22;66364;52.622;7.746;2023-07-08T04:07:41;15.40;99.90
77305;DHT22;66364;52.622;7.746;2023-07-08T04:09:42;15.20;99.90
77305;DHT22;66364;52.622;7.746;2023-07-08T04:11:42;15.20;99.90
77305;DHT22;66364;52.622;7.746;2023-07-08T04:13:44;15.20;99.90
77305;DHT22;66364;52.622;7.746;2023-07-08T04:15:49;15.30;99.90
77305;DHT22;66364;52.622;7.746;2023-07-08T04:17:49;15.10;99.90
77305;DHT22;66364;52.622;7.746;2023-07-08T04:19:51;15.30;99.90
77305;DHT22;66364;52.622;7.746;2023-07-08T04:21:52;15.40;99.90
77305;DHT22;66364;52.622;7.746;2023-07-08T04:23:55;15.50;99.90
77305;DHT22;66364;52.622;7.746;2023-07-08T04:25:57;15.50;99.90
77305;DHT22;66364;52.622;7.746;2023-07-08T04:27:58;15.50;99.90
77305;DHT22;66364;52.622;7.746;2023-07-08T04:29:59;15.40;99.90
77305;DHT22;66364;52.622;7.746;2023-07-08T04:32:00;15.50;99.90
77305;DHT22;66364;52.622;7.746;2023-07-08T04:34:01;15.40;99.90
77305;DHT22;66364;52.622;7.746;2023-07-08T04:36:03;15.50;99.90
77305;DHT22;66364;52.622;7.746;2023-07-08T04:38:05;15.80;99.90
77305;DHT22;66364;52.622;7.746;2023-07-08T04:40:16;15.70;99.90
77305;DHT22;66364;52.622;7.746;2023-07-08T04:42:18;15.80;99.90
77305;DHT22;66364;52.622;7.746;2023-07-08T04:44:19;15.60;99.90
77305;DHT22;66364;52.622;7.746;2023-07-08T04:46:26;15.80;99.90
77305;DHT22;66364;52.622;7.746;2023-07-08T04:48:25;15.80;99.90
77305;DHT22;66364;52.622;7.746;2023-07-08T04:50:25;15.80;99.90
77305;DHT22;66364;52.622;7.746;2023-07-08T04:52:26;15.80;99.90
77305;DHT22;66364;52.622;7.746;2023-07-08T04:54:29;16.00;99.90
77305;DHT22;66364;52.622;7.746;2023-07-08T04:56:39;15.70;99.90
77305;DHT22;66364;52.622;7.746;2023-07-08T04:58:37;15.90;99.90
77305;DHT22;66364;52.622;7.746;2023-07-08T05:00:38;16.00;99.90
77305;DHT22;66364;52.622;7.746;2023-07-08T05:02:40;16.10;99.90
77305;DHT22;66364;52.622;7.746;2023-07-08T05:04:41;16.30;99.90
77305;DHT22;66364;52.622;7.746;2023-07-08T05:06:42;15.90;99.90
77305;DHT22;66364;52.622;7.746;2023-07-08T05:08:44;16.50;99.90
77305;DHT22;66364;52.622;7.746;2023-07-08T05:10:45;16.30;99.90
77305;DHT22;66364;52.622;7.746;2023-07-08T05:12:46;16.40;99.90
77305;DHT22;66364;52.622;7.746;2023-07-08T05:14:47;16.40;99.90
77305;DHT22;66364;52.622;7.746;2023-07-08T05:16:48;16.40;99.90
77305;DHT22;66364;52.622;7.746;2023-07-08T05:18:49;16.40;99.90
77305;DHT22;66364;52.622;7.746;2023-07-08T05:20:51;16.60;99.90
77305;DHT22;66364;52.622;7.746;2023-07-08T05:22:52;16.40;99.90
77305;DHT22;66364;52.622;7.746;2023-07-08T05:24:53;16.60;99.90
77305;DHT22;66364;52.622;7.746;2023-07-08T05:26:54;16.70;99.90
77305;DHT22;66364;52.622;7.746;2023-07-08T05:28:54;16.90;99.90
77305;DHT22;66364;52.622;7.746;2023-07-08T05:30:56;16.90;99.90
77305;DHT22;66364;52.622;7.746;2023-07-08T05:32:57;16.80;99.90
77305;DHT22;66364;52.622;7.746;2023-07-08T05:34:58;17.10;99.90
77305;DHT22;66364;52.622;7.746;2023-07-08T05:36:58;16.90;99.90
77305;DHT22;66364;52.622;7.746;2023-07-08T05:38:59;17.00;99.90
77305;DHT22;66364;52.622;7.746;2023-07-08T05:41:00;17.00;99.90
77305;DHT22;66364;52.622;7.746;2023-07-08T05:43:01;17.10;99.90
77305;DHT22;66364;52.622;7.746;2023-07-08T05:45:03;17.10;99.90
77305;DHT22;66364;52.622;7.746;2023-07-08T05:47:04;17.00;99.90
77305;DHT22;66364;52.622;7.746;2023-07-08T05:49:05;17.20;99.90
77305;DHT22;66364;52.622;7.746;2023-07-08T05:51:06;17.30;99.90
77305;DHT22;66364;52.622;7.746;2023-07-08T05:53:09;17.40;99.90
77305;DHT22;66364;52.622;7.746;2023-07-08T05:55:11;17.10;99.90
77305;DHT22;66364;52.622;7.746;2023-07-08T05:57:12;17.30;99.90
77305;DHT22;66364;52.622;7.746;2023-07-08T05:59:14;17.50;99.90
77305;DHT22;66364;52.622;7.746;2023-07-08T06:01:15;17.80;99.90
77305;DHT22;66364;52.622;7.746;2023-07-08T06:03:15;17.70;99.90
77305;DHT22;66364;52.622;7.746;2023-07-08T06:05:16;18.00;99.90
77305;DHT22;66364;52.622;7.746;2023-07-08T06:07:17;17.80;99.90
77305;DHT22;66364;52.622;7.746;2023-07-08T06:09:18;17.80;99.90
77305;DHT22;66364;52.622;7.746;2023-07-08T06:11:19;18.00;99.90
77305;DHT22;66364;52.622;7.746;2023-07-08T06:13:20;18.00;99.90
77305;DHT22;66364;52.622;7.746;2023-07-08T06:15:21;18.50;99.90
77305;DHT22;66364;52.622;7.746;2023-07-08T06:17:22;18.10;99.90
77305;DHT22;66364;52.622;7.746;2023-07-08T06:19:23;18.10;99.90
77305;DHT22;66364;52.622;7.746;2023-07-08T06:21:24;18.20;99.90
77305;DHT22;66364;52.622;7.746;2023-07-08T06:23:26;18.20;99.90
77305;DHT22;66364;52.622;7.746;2023-07-08T06:25:27;18.10;99.90
77305;DHT22;66364;52.622;7.746;2023-07-08T06:27:28;18.50;99.90
77305;DHT22;66364;52.622;7.746;2023-07-08T06:29:29;18.50;99.90
77305;DHT22;66364;52.622;7.746;2023-07-08T06:31:30;18.60;99.90
77305;DHT22;66364;52.622;7.746;2023-07-08T06:33:31;18.60;99.90
77305;DHT22;66364;52.622;7.746;2023-07-08T06:35:32;18.70;99.90
77305;DHT22;66364;52.622;7.746;2023-07-08T06:37:32;18.50;99.90
77305;DHT22;66364;52.622;7.746;2023-07-08T06:39:34;18.80;99.90
77305;DHT22;66364;52.622;7.746;2023-07-08T06:41:35;18.80;99.90
77305;DHT22;66364;52.622;7.746;2023-07-08T06:43:35;18.80;99.90
77305;DHT22;66364;52.622;7.746;2023-07-08T06:45:37;19.20;99.90
77305;DHT22;66364;52.622;7.746;2023-07-08T06:47:38;19.00;99.90
77305;DHT22;66364;52.622;7.746;2023-07-08T06:49:39;19.10;99.90
77305;DHT22;66364;52.622;7.746;2023-07-08T06:51:40;19.20;99.90
77305;DHT22;66364;52.622;7.746;2023-07-08T06:53:41;19.00;99.90
77305;DHT22;66364;52.622;7.746;2023-07-08T06:55:44;19.30;99.90
77305;DHT22;66364;52.622;7.746;2023-07-08T06:57:45;19.40;99.90
77305;DHT22;66364;52.622;7.746;2023-07-08T06:59:46;19.70;99.90
77305;DHT22;66364;52.622;7.746;2023-07-08T07:01:47;19.80;99.90
77305;DHT22;66364;52.622;7.746;2023-07-08T07:03:49;19.60;99.90
77305;DHT22;66364;52.622;7.746;2023-07-08T07:05:50;19.80;99.90
77305;DHT22;66364;52.622;7.746;2023-07-08T07:07:51;19.70;99.90
77305;DHT22;66364;52.622;7.746;2023-07-08T07:10:00;20.00;99.90
77305;DHT22;66364;52.622;7.746;2023-07-08T07:12:01;19.80;99.90
77305;DHT22;66364;52.622;7.746;2023-07-08T07:14:02;19.90;99.90
77305;DHT22;66364;52.622;7.746;2023-07-08T07:16:05;20.30;99.90
77305;DHT22;66364;52.622;7.746;2023-07-08T07:18:07;20.40;99.90
77305;DHT22;66364;52.622;7.746;2023-07-08T07:20:09;20.40;99.90
77305;DHT22;66364;52.622;7.746;2023-07-08T07:22:10;20.50;99.90
77305;DHT22;66364;52.622;7.746;2023-07-08T07:24:10;20.60;99.90
77305;DHT22;66364;52.622;7.746;2023-07-08T07:26:11;20.70;99.90
77305;DHT22;66364;52.622;7.746;2023-07-08T07:28:13;20.80;99.90
77305;DHT22;66364;52.622;7.746;2023-07-08T07:30:14;21.00;99.90
77305;DHT22;66364;52.622;7.746;2023-07-08T07:32:17;21.10;99.90
77305;DHT22;66364;52.622;7.746;2023-07-08T07:34:18;21.30;99.90
77305;DHT22;66364;52.622;7.746;2023-07-08T07:36:19;21.50;99.90
77305;DHT22;66364;52.622;7.746;2023-07-08T07:38:20;21.80;99.90
77305;DHT22;66364;52.622;7.746;2023-07-08T07:40:20;21.90;99.90
77305;DHT22;66364;52.622;7.746;2023-07-08T07:42:21;22.00;99.90
77305;DHT22;66364;52.622;7.746;2023-07-08T07:44:23;22.30;99.90
77305;DHT22;66364;52.622;7.746;2023-07-08T07:46:25;22.30;95.70
77305;DHT22;66364;52.622;7.746;2023-07-08T07:48:25;22.30;92.20
77305;DHT22;66364;52.622;7.746;2023-07-08T07:50:28;22.30;93.50
77305;DHT22;66364;52.622;7.746;2023-07-08T07:52:28;22.30;88.90
77305;DHT22;66364;52.622;7.746;2023-07-08T07:54:30;22.40;90.60
77305;DHT22;66364;52.622;7.746;2023-07-08T07:56:30;22.50;90.90
77305;DHT22;66364;52.622;7.746;2023-07-08T07:58:32;22.70;88.10
77305;DHT22;66364;52.622;7.746;2023-07-08T08:00:33;22.70;84.70
77305;DHT22;66364;52.622;7.746;2023-07-08T08:02:33;22.90;86.00
77305;DHT22;66364;52.622;7.746;2023-07-08T08:04:35;23.10;87.50
77305;DHT22;66364;52.622;7.746;2023-07-08T08:06:36;23.30;82.40
77305;DHT22;66364;52.622;7.746;2023-07-08T08:08:37;23.30;82.60
77305;DHT22;66364;52.622;7.746;2023-07-08T08:10:38;23.40;79.80
77305;DHT22;66364;52.622;7.746;2023-07-08T08:12:39;23.50;76.50
77305;DHT22;66364;52.622;7.746;2023-07-08T08:14:40;23.60;76.10
77305;DHT22;66364;52.622;7.746;2023-07-08T08:16:41;23.80;74.10
77305;DHT22;66364;52.622;7.746;2023-07-08T08:18:42;23.80;76.30
77305;DHT22;66364;52.622;7.746;2023-07-08T08:20:42;23.80;72.80
77305;DHT22;66364;52.622;7.746;2023-07-08T08:22:45;23.80;71.10
77305;DHT22;66364;52.622;7.746;2023-07-08T08:24:46;23.80;73.80
77305;DHT22;66364;52.622;7.746;2023-07-08T08:26:46;24.10;77.90
77305;DHT22;66364;52.622;7.746;2023-07-08T08:28:47;24.30;73.60
77305;DHT22;66364;52.622;7.746;2023-07-08T08:30:50;24.60;73.90
77305;DHT22;66364;52.622;7.746;2023-07-08T08:32:51;24.90;70.50
77305;DHT22;66364;52.622;7.746;2023-07-08T08:34:52;24.80;68.80
77305;DHT22;66364;52.622;7.746;2023-07-08T08:36:54;24.80;68.90
77305;DHT22;66364;52.622;7.746;2023-07-08T08:38:55;24.90;67.10
77305;DHT22;66364;52.622;7.746;2023-07-08T08:40:56;25.00;67.10
77305;DHT22;66364;52.622;7.746;2023-07-08T08:43:03;25.10;65.90
77305;DHT22;66364;52.622;7.746;2023-07-08T08:45:02;25.00;63.00
77305;DHT22;66364;52.622;7.746;2023-07-08T08:47:08;25.00;66.30
77305;DHT22;66364;52.622;7.746;2023-07-08T08:49:37;25.20;68.10
77305;DHT22;66364;52.622;7.746;2023-07-08T08:51:37;25.40;64.40
77305;DHT22;66364;52.622;7.746;2023-07-08T08:53:39;25.80;63.70
77305;DHT22;66364;52.622;7.746;2023-07-08T08:55:40;25.90;63.90
77305;DHT22;66364;52.622;7.746;2023-07-08T08:57:45;26.00;63.40
77305;DHT22;66364;52.622;7.746;2023-07-08T08:59:53;26.10;63.60
77305;DHT22;66364;52.622;7.746;2023-07-08T09:01:55;26.30;61.50
77305;DHT22;66364;52.622;7.746;2023-07-08T09:06:12;26.70;58.50
77305;DHT22;66364;52.622;7.746;2023-07-08T09:08:31;26.70;59.40
77305;DHT22;66364;52.622;7.746;2023-07-08T09:12:50;27.40;55.80
77305;DHT22;66364;52.622;7.746;2023-07-08T09:14:52;27.20;54.40
77305;DHT22;66364;52.622;7.746;2023-07-08T09:23:41;27.30;55.60
77305;DHT22;66364;52.622;7.746;2023-07-08T09:25:52;27.80;54.20
77305;DHT22;66364;52.622;7.746;2023-07-08T09:27:54;28.00;54.30
77305;DHT22;66364;52.622;7.746;2023-07-08T09:29:56;28.20;49.40
77305;DHT22;66364;52.622;7.746;2023-07-08T09:31:58;28.30;48.80
77305;DHT22;66364;52.622;7.746;2023-07-08T09:34:14;28.10;45.20
77305;DHT22;66364;52.622;7.746;2023-07-08T09:36:18;28.00;45.00
77305;DHT22;66364;52.622;7.746;2023-07-08T09:38:21;28.20;47.10
77305;DHT22;66364;52.622;7.746;2023-07-08T09:40:31;28.50;47.30
77305;DHT22;66364;52.622;7.746;2023-07-08T09:42:34;29.00;44.30
77305;DHT22;66364;52.622;7.746;2023-07-08T09:44:37;29.10;40.70
77305;DHT22;66364;52.622;7.746;2023-07-08T09:46:39;29.10;42.20
77305;DHT22;66364;52.622;7.746;2023-07-08T09:48:40;29.30;39.50
77305;DHT22;66364;52.622;7.746;2023-07-08T09:50:43;29.60;38.90
77305;DHT22;66364;52.622;7.746;2023-07-08T09:52:46;30.00;39.20
77305;DHT22;66364;52.622;7.746;2023-07-08T09:54:47;30.20;35.70
77305;DHT22;66364;52.622;7.746;2023-07-08T09:57:05;30.60;32.50
77305;DHT22;66364;52.622;7.746;2023-07-08T09:59:05;30.50;28.20
77305;DHT22;66364;52.622;7.746;2023-07-08T10:01:14;30.20;27.50
77305;DHT22;66364;52.622;7.746;2023-07-08T10:03:20;30.30;26.70
77305;DHT22;66364;52.622;7.746;2023-07-08T10:05:33;30.40;27.60
77305;DHT22;66364;52.622;7.746;2023-07-08T10:07:34;30.40;25.40
77305;DHT22;66364;52.622;7.746;2023-07-08T10:09:35;30.70;27.00
77305;DHT22;66364;52.622;7.746;2023-07-08T10:11:42;31.10;28.10
77305;DHT22;66364;52.622;7.746;2023-07-08T10:13:48;31.50;26.70
77305;DHT22;66364;52.622;7.746;2023-07-08T10:16:11;31.80;24.20
77305;DHT22;66364;52.622;7.746;2023-07-08T10:18:03;31.70;24.70
77305;DHT22;66364;52.622;7.746;2023-07-08T10:20:12;31.60;23.10
77305;DHT22;66364;52.622;7.746;2023-07-08T10:22:24;31.30;23.20
77305;DHT22;66364;52.622;7.746;2023-07-08T10:26:49;31.70;26.00
77305;DHT22;66364;52.622;7.746;2023-07-08T10:31:33;32.20;23.30
77305;DHT22;66364;52.622;7.746;2023-07-08T10:35:54;32.10;24.90
77305;DHT22;66364;52.622;7.746;2023-07-08T10:38:22;32.00;24.30
77305;DHT22;66364;52.622;7.746;2023-07-08T10:45:01;31.90;21.20
77305;DHT22;66364;52.622;7.746;2023-07-08T10:47:12;31.70;22.60
77305;DHT22;66364;52.622;7.746;2023-07-08T10:51:33;31.70;22.50
77305;DHT22;66364;52.622;7.746;2023-07-08T10:54:09;31.50;22.10
77305;DHT22;66364;52.622;7.746;2023-07-08T10:55:58;31.20;22.30
77305;DHT22;66364;52.622;7.746;2023-07-08T10:58:14;31.10;23.00
77305;DHT22;66364;52.622;7.746;2023-07-08T11:00:22;31.00;22.10
77305;DHT22;66364;52.622;7.746;2023-07-08T11:07:05;31.50;23.00
77305;DHT22;66364;52.622;7.746;2023-07-08T11:09:07;31.30;23.10
77305;DHT22;66364;52.622;7.746;2023-07-08T11:11:33;31.00;23.30
77305;DHT22;66364;52.622;7.746;2023-07-08T11:13:34;31.00;26.40
77305;DHT22;66364;52.622;7.746;2023-07-08T11:15:45;31.30;22.80
77305;DHT22;66364;52.622;7.746;2023-07-08T11:20:41;31.10;19.90
77305;DHT22;66364;52.622;7.746;2023-07-08T11:22:29;31.00;20.20
77305;DHT22;66364;52.622;7.746;2023-07-08T11:24:42;31.20;20.90
77305;DHT22;66364;52.622;7.746;2023-07-08T11:26:52;31.50;20.30
77305;DHT22;66364;52.622;7.746;2023-07-08T11:28:59;31.50;20.70
77305;DHT22;66364;52.622;7.746;2023-07-08T11:31:01;31.50;19.60
77305;DHT22;66364;52.622;7.746;2023-07-08T11:33:06;31.50;18.80
77305;DHT22;66364;52.622;7.746;2023-07-08T11:35:16;31.50;20.70
77305;DHT22;66364;52.622;7.746;2023-07-08T11:37:21;31.80;19.60
77305;DHT22;66364;52.622;7.746;2023-07-08T11:39:38;31.90;21.70
77305;DHT22;66364;52.622;7.746;2023-07-08T11:41:36;31.70;20.20
77305;DHT22;66364;52.622;7.746;2023-07-08T11:43:47;32.00;19.40
77305;DHT22;66364;52.622;7.746;2023-07-08T11:45:45;32.30;19.50
77305;DHT22;66364;52.622;7.746;2023-07-08T11:47:48;32.30;18.20
77305;DHT22;66364;52.622;7.746;2023-07-08T11:49:51;32.30;16.70
77305;DHT22;66364;52.622;7.746;2023-07-08T11:51:54;32.30;19.40
77305;DHT22;66364;52.622;7.746;2023-07-08T11:56:20;32.40;18.70
77305;DHT22;66364;52.622;7.746;2023-07-08T11:58:49;32.70;17.40
77305;DHT22;66364;52.622;7.746;2023-07-08T12:00:36;32.60;18.80
77305;DHT22;66364;52.622;7.746;2023-07-08T12:02:49;32.40;17.10
77305;DHT22;66364;52.622;7.746;2023-07-08T12:05:47;32.10;16.90
77305;DHT22;66364;52.622;7.746;2023-07-08T12:07:16;32.10;19.30
77305;DHT22;66364;52.622;7.746;2023-07-08T12:09:29;32.30;18.60
77305;DHT22;66364;52.622;7.746;2023-07-08T12:11:33;32.50;18.80
77305;DHT22;66364;52.622;7.746;2023-07-08T12:13:34;32.60;16.60
77305;DHT22;66364;52.622;7.746;2023-07-08T12:15:35;32.70;16.80
77305;DHT22;66364;52.622;7.746;2023-07-08T12:17:38;32.60;16.20
77305;DHT22;66364;52.622;7.746;2023-07-08T12:19:42;32.80;17.90
77305;DHT22;66364;52.622;7.746;2023-07-08T12:21:51;32.90;16.90
77305;DHT22;66364;52.622;7.746;2023-07-08T12:23:53;32.90;17.00
77305;DHT22;66364;52.622;7.746;2023-07-08T12:25:56;32.90;17.30
77305;DHT22;66364;52.622;7.746;2023-07-08T12:27:58;32.90;17.10
77305;DHT22;66364;52.622;7.746;2023-07-08T12:29:59;32.90;17.20
77305;DHT22;66364;52.622;7.746;2023-07-08T12:32:00;32.90;14.00
77305;DHT22;66364;52.622;7.746;2023-07-08T12:34:01;32.80;14.20
77305;DHT22;66364;52.622;7.746;2023-07-08T12:36:03;33.00;13.80
77305;DHT22;66364;52.622;7.746;2023-07-08T12:40:23;33.30;12.00
77305;DHT22;66364;52.622;7.746;2023-07-08T12:42:24;33.20;11.60
77305;DHT22;66364;52.622;7.746;2023-07-08T12:44:26;33.00;13.60
77305;DHT22;66364;52.622;7.746;2023-07-08T12:46:28;33.00;13.60
77305;DHT22;66364;52.622;7.746;2023-07-08T12:48:34;33.30;13.30
77305;DHT22;66364;52.622;7.746;2023-07-08T12:50:35;33.50;12.90
77305;DHT22;66364;52.622;7.746;2023-07-08T12:52:36;33.40;12.20
77305;DHT22;66364;52.622;7.746;2023-07-08T12:54:37;33.30;11.60
77305;DHT22;66364;52.622;7.746;2023-07-08T12:56:40;33.10;11.50
77305;DHT22;66364;52.622;7.746;2023-07-08T12:58:45;33.10;11.00
77305;DHT22;66364;52.622;7.746;2023-07-08T13:00:47;33.00;10.80
77305;DHT22;66364;52.622;7.746;2023-07-08T13:02:52;32.80;10.50
77305;DHT22;66364;52.622;7.746;2023-07-08T13:04:56;32.90;10.90
77305;DHT22;66364;52.622;7.746;2023-07-08T13:06:59;33.00;11.40
77305;DHT22;66364;52.622;7.746;2023-07-08T13:09:24;33.10;12.80
77305;DHT22;66364;52.622;7.746;2023-07-08T13:11:37;33.30;10.40
77305;DHT22;66364;52.622;7.746;2023-07-08T13:13:56;33.40;13.60
77305;DHT22;66364;52.622;7.746;2023-07-08T13:15:58;33.40;11.10
77305;DHT22;66364;52.622;7.746;2023-07-08T13:18:00;33.20;8.40
77305;DHT22;66364;52.622;7.746;2023-07-08T13:20:03;33.20;9.50
77305;DHT22;66364;52.622;7.746;2023-07-08T13:22:05;33.20;8.60
77305;DHT22;66364;52.622;7.746;2023-07-08T13:24:12;33.20;8.50
77305;DHT22;66364;52.622;7.746;2023-07-08T13:26:19;33.30;9.20
77305;DHT22;66364;52.622;7.746;2023-07-08T13:28:30;33.30;9.80
77305;DHT22;66364;52.622;7.746;2023-07-08T13:30:30;33.50;8.60
77305;DHT22;66364;52.622;7.746;2023-07-08T13:32:31;33.40;7.90
77305;DHT22;66364;52.622;7.746;2023-07-08T13:34:32;33.30;8.90
77305;DHT22;66364;52.622;7.746;2023-07-08T13:36:37;33.40;8.70
77305;DHT22;66364;52.622;7.746;2023-07-08T13:38:39;33.40;5.50
77305;DHT22;66364;52.622;7.746;2023-07-08T13:40:44;33.50;6.60